sensor_id;sensor_type;location;lat;lon;timestamp;P1;durP1;ratioP1;P2;durP2;ratioP2
59950;SDS011;45812;53.540;9.774;2022-11-12T00:02:14;17.38;;;7.75;;
59950;SDS011;45812;53.540;9.774;2022-11-12T00:04:39;14.98;;;7.47;;
59950;SDS011;45812;53.540;9.774;2022-11-12T00:07:05;17.25;;;8.27;;
59950;SDS011;45812;53.540;9.774;2022-11-12T00:09:30;16.40;;;8.52;;
59950;SDS011;45812;53.540;9.774;2022-11-12T00:11:55;18.45;;;7.32;;
59950;SDS011;45812;53.540;9.774;2022-11-12T00:14:20;17.08;;;7.38;;
59950;SDS011;45812;53.540;9.774;2022-11-12T00:16:46;16.23;;;8.05;;
59950;SDS011;45812;53.540;9.774;2022-11-12T00:19:11;15.25;;;7.45;;
59950;SDS011;45812;53.540;9.774;2022-11-12T00:21:36;15.57;;;8.07;;
59950;SDS011;45812;53.540;9.774;2022-11-12T00:24:02;19.42;;;8.80;;
59950;SDS011;45812;53.540;9.774;2022-11-12T00:26:27;22.08;;;8.20;;
59950;SDS011;45812;53.540;9.774;2022-11-12T00:28:52;15.05;;;7.72;;
59950;SDS011;45812;53.540;9.774;2022-11-12T00:31:17;15.70;;;7.53;;
59950;SDS011;45812;53.540;9.774;2022-11-12T00:33:43;18.55;;;7.70;;
59950;SDS011;45812;53.540;9.774;2022-11-12T00:36:09;16.88;;;7.72;;
59950;SDS011;45812;53.540;9.774;2022-11-12T00:38:35;16.80;;;7.68;;
59950;SDS011;45812;53.540;9.774;2022-11-12T00:41:00;14.15;;;7.35;;
59950;SDS011;45812;53.540;9.774;2022-11-12T00:43:26;16.05;;;7.25;;
59950;SDS011;45812;53.540;9.774;2022-11-12T00:45:51;16.27;;;7.22;;
59950;SDS011;45812;53.540;9.774;2022-11-12T00:48:16;16.05;;;7.50;;
59950;SDS011;45812;53.540;9.774;2022-11-12T00:50:42;16.60;;;7.22;;
59950;SDS011;45812;53.540;9.774;2022-11-12T00:53:07;14.20;;;7.32;;
59950;SDS011;45812;53.540;9.774;2022-11-12T00:55:33;16.02;;;7.38;;
59950;SDS011;45812;53.540;9.774;2022-11-12T00:57:58;14.73;;;7.00;;
59950;SDS011;45812;53.540;9.774;2022-11-12T01:00:23;19.02;;;8.27;;
59950;SDS011;45812;53.540;9.774;2022-11-12T01:02:49;17.48;;;8.45;;
59950;SDS011;45812;53.540;9.774;2022-11-12T01:05:15;18.88;;;8.10;;
59950;SDS011;45812;53.540;9.774;2022-11-12T01:07:40;12.45;;;7.35;;
59950;SDS011;45812;53.540;9.774;2022-11-12T01:10:06;15.93;;;7.22;;
59950;SDS011;45812;53.540;9.774;2022-11-12T01:12:33;16.17;;;7.50;;
59950;SDS011;45812;53.540;9.774;2022-11-12T01:14:58;14.95;;;7.90;;
59950;SDS011;45812;53.540;9.774;2022-11-12T01:17:23;14.68;;;7.70;;
59950;SDS011;45812;53.540;9.774;2022-11-12T01:19:49;17.33;;;7.93;;
59950;SDS011;45812;53.540;9.774;2022-11-12T01:22:14;15.88;;;7.85;;
59950;SDS011;45812;53.540;9.774;2022-11-12T01:24:40;16.23;;;7.70;;
59950;SDS011;45812;53.540;9.774;2022-11-12T01:27:05;15.35;;;8.20;;
59950;SDS011;45812;53.540;9.774;2022-11-12T01:29:30;15.10;;;7.07;;
59950;SDS011;45812;53.540;9.774;2022-11-12T01:31:55;16.50;;;7.43;;
59950;SDS011;45812;53.540;9.774;2022-11-12T01:34:21;15.77;;;7.68;;
59950;SDS011;45812;53.540;9.774;2022-11-12T01:36:46;14.45;;;7.45;;
59950;SDS011;45812;53.540;9.774;2022-11-12T01:39:11;17.33;;;8.40;;
59950;SDS011;45812;53.540;9.774;2022-11-12T01:41:37;17.17;;;7.32;;
59950;SDS011;45812;53.540;9.774;2022-11-12T01:44:05;15.05;;;7.10;;
59950;SDS011;45812;53.540;9.774;2022-11-12T01:46:45;17.73;;;7.70;;
59950;SDS011;45812;53.540;9.774;2022-11-12T01:52:50;14.05;;;6.63;;
59950;SDS011;45812;53.540;9.774;2022-11-12T01:55:21;17.33;;;7.18;;
59950;SDS011;45812;53.540;9.774;2022-11-12T01:57:58;16.20;;;7.63;;
59950;SDS011;45812;53.540;9.774;2022-11-12T02:00:29;13.75;;;6.85;;
59950;SDS011;45812;53.540;9.774;2022-11-12T02:02:55;13.38;;;7.25;;
59950;SDS011;45812;53.540;9.774;2022-11-12T02:05:23;13.80;;;7.07;;
59950;SDS011;45812;53.540;9.774;2022-11-12T02:07:50;16.23;;;7.35;;
59950;SDS011;45812;53.540;9.774;2022-11-12T02:10:17;10.95;;;6.45;;
59950;SDS011;45812;53.540;9.774;2022-11-12T02:12:43;13.18;;;7.00;;
59950;SDS011;45812;53.540;9.774;2022-11-12T02:15:27;14.43;;;7.22;;
59950;SDS011;45812;53.540;9.774;2022-11-12T02:17:53;17.75;;;7.45;;
59950;SDS011;45812;53.540;9.774;2022-11-12T02:20:18;17.23;;;7.18;;
59950;SDS011;45812;53.540;9.774;2022-11-12T02:22:43;14.88;;;7.43;;
59950;SDS011;45812;53.540;9.774;2022-11-12T02:25:13;13.40;;;7.00;;
59950;SDS011;45812;53.540;9.774;2022-11-12T02:27:42;14.93;;;6.85;;
59950;SDS011;45812;53.540;9.774;2022-11-12T02:30:09;16.08;;;7.00;;
59950;SDS011;45812;53.540;9.774;2022-11-12T02:32:35;14.23;;;7.60;;
59950;SDS011;45812;53.540;9.774;2022-11-12T02:35:00;13.35;;;7.70;;
59950;SDS011;45812;53.540;9.774;2022-11-12T02:37:25;18.00;;;7.20;;
59950;SDS011;45812;53.540;9.774;2022-11-12T02:39:51;17.95;;;8.05;;
59950;SDS011;45812;53.540;9.774;2022-11-12T02:42:16;13.77;;;7.30;;
59950;SDS011;45812;53.540;9.774;2022-11-12T02:44:41;16.15;;;6.95;;
59950;SDS011;45812;53.540;9.774;2022-11-12T02:47:07;16.55;;;7.03;;
59950;SDS011;45812;53.540;9.774;2022-11-12T02:49:32;16.10;;;7.65;;
59950;SDS011;45812;53.540;9.774;2022-11-12T02:51:57;16.67;;;7.18;;
59950;SDS011;45812;53.540;9.774;2022-11-12T02:54:22;18.42;;;7.90;;
59950;SDS011;45812;53.540;9.774;2022-11-12T02:56:48;27.92;;;7.88;;
59950;SDS011;45812;53.540;9.774;2022-11-12T02:59:13;18.42;;;8.80;;
59950;SDS011;45812;53.540;9.774;2022-11-12T03:01:38;17.67;;;8.60;;
59950;SDS011;45812;53.540;9.774;2022-11-12T03:04:03;18.08;;;8.07;;
59950;SDS011;45812;53.540;9.774;2022-11-12T03:06:29;18.10;;;8.18;;
59950;SDS011;45812;53.540;9.774;2022-11-12T03:08:54;15.25;;;8.30;;
59950;SDS011;45812;53.540;9.774;2022-11-12T03:11:19;16.05;;;8.05;;
59950;SDS011;45812;53.540;9.774;2022-11-12T03:13:44;20.23;;;8.88;;
59950;SDS011;45812;53.540;9.774;2022-11-12T03:16:10;17.63;;;8.43;;
59950;SDS011;45812;53.540;9.774;2022-11-12T03:18:35;21.08;;;7.88;;
59950;SDS011;45812;53.540;9.774;2022-11-12T03:21:01;17.15;;;8.73;;
59950;SDS011;45812;53.540;9.774;2022-11-12T03:23:27;19.50;;;8.85;;
59950;SDS011;45812;53.540;9.774;2022-11-12T03:25:52;19.40;;;8.70;;
59950;SDS011;45812;53.540;9.774;2022-11-12T03:28:18;15.88;;;8.40;;
59950;SDS011;45812;53.540;9.774;2022-11-12T03:30:43;17.55;;;7.65;;
59950;SDS011;45812;53.540;9.774;2022-11-12T03:33:09;18.15;;;8.35;;
59950;SDS011;45812;53.540;9.774;2022-11-12T03:35:36;19.05;;;9.02;;
59950;SDS011;45812;53.540;9.774;2022-11-12T03:38:03;16.42;;;8.13;;
59950;SDS011;45812;53.540;9.774;2022-11-12T03:40:29;15.15;;;8.68;;
59950;SDS011;45812;53.540;9.774;2022-11-12T03:42:54;16.48;;;8.57;;
59950;SDS011;45812;53.540;9.774;2022-11-12T03:45:20;21.05;;;9.18;;
59950;SDS011;45812;53.540;9.774;2022-11-12T03:47:48;20.92;;;8.52;;
59950;SDS011;45812;53.540;9.774;2022-11-12T03:50:16;16.10;;;7.53;;
59950;SDS011;45812;53.540;9.774;2022-11-12T03:52:44;21.38;;;8.02;;
59950;SDS011;45812;53.540;9.774;2022-11-12T03:55:10;16.17;;;8.00;;
59950;SDS011;45812;53.540;9.774;2022-11-12T03:57:36;17.58;;;7.88;;
59950;SDS011;45812;53.540;9.774;2022-11-12T04:00:02;16.88;;;7.78;;
59950;SDS011;45812;53.540;9.774;2022-11-12T04:02:29;12.70;;;7.05;;
59950;SDS011;45812;53.540;9.774;2022-11-12T04:04:54;12.70;;;7.25;;
59950;SDS011;45812;53.540;9.774;2022-11-12T04:07:38;14.68;;;7.32;;
59950;SDS011;45812;53.540;9.774;2022-11-12T04:12:47;16.97;;;8.17;;
59950;SDS011;45812;53.540;9.774;2022-11-12T04:17:56;16.33;;;8.47;;
59950;SDS011;45812;53.540;9.774;2022-11-12T04:23:31;15.85;;;8.00;;
59950;SDS011;45812;53.540;9.774;2022-11-12T04:25:56;19.23;;;9.55;;
59950;SDS011;45812;53.540;9.774;2022-11-12T04:31:25;16.85;;;8.18;;
59950;SDS011;45812;53.540;9.774;2022-11-12T04:33:50;17.05;;;8.02;;
59950;SDS011;45812;53.540;9.774;2022-11-12T04:36:15;18.30;;;8.80;;
59950;SDS011;45812;53.540;9.774;2022-11-12T04:38:40;19.45;;;9.38;;
59950;SDS011;45812;53.540;9.774;2022-11-12T04:41:06;19.52;;;8.55;;
59950;SDS011;45812;53.540;9.774;2022-11-12T04:43:50;16.45;;;7.50;;
59950;SDS011;45812;53.540;9.774;2022-11-12T04:46:34;20.25;;;8.88;;
59950;SDS011;45812;53.540;9.774;2022-11-12T04:48:59;14.75;;;7.80;;
59950;SDS011;45812;53.540;9.774;2022-11-12T04:51:24;15.57;;;7.20;;
59950;SDS011;45812;53.540;9.774;2022-11-12T04:54:08;15.45;;;7.60;;
59950;SDS011;45812;53.540;9.774;2022-11-12T04:56:34;14.23;;;7.93;;
59950;SDS011;45812;53.540;9.774;2022-11-12T04:58:59;18.75;;;7.40;;
59950;SDS011;45812;53.540;9.774;2022-11-12T05:01:24;17.55;;;8.60;;
59950;SDS011;45812;53.540;9.774;2022-11-12T05:03:49;14.85;;;7.60;;
59950;SDS011;45812;53.540;9.774;2022-11-12T05:06:15;19.83;;;9.73;;
59950;SDS011;45812;53.540;9.774;2022-11-12T05:08:58;17.80;;;8.13;;
59950;SDS011;45812;53.540;9.774;2022-11-12T05:11:23;18.88;;;8.48;;
59950;SDS011;45812;53.540;9.774;2022-11-12T05:13:49;22.05;;;9.98;;
59950;SDS011;45812;53.540;9.774;2022-11-12T05:16:14;22.13;;;8.55;;
59950;SDS011;45812;53.540;9.774;2022-11-12T05:18:39;17.38;;;7.85;;
59950;SDS011;45812;53.540;9.774;2022-11-12T05:21:04;19.48;;;7.75;;
59950;SDS011;45812;53.540;9.774;2022-11-12T05:23:49;18.15;;;8.40;;
59950;SDS011;45812;53.540;9.774;2022-11-12T05:26:15;18.58;;;8.55;;
59950;SDS011;45812;53.540;9.774;2022-11-12T05:28:40;20.15;;;8.15;;
59950;SDS011;45812;53.540;9.774;2022-11-12T05:31:05;14.68;;;7.30;;
59950;SDS011;45812;53.540;9.774;2022-11-12T05:33:30;20.52;;;7.82;;
59950;SDS011;45812;53.540;9.774;2022-11-12T05:35:56;19.80;;;8.30;;
59950;SDS011;45812;53.540;9.774;2022-11-12T05:38:21;16.63;;;8.05;;
59950;SDS011;45812;53.540;9.774;2022-11-12T05:40:46;22.17;;;8.57;;
59950;SDS011;45812;53.540;9.774;2022-11-12T05:43:11;18.73;;;8.27;;
59950;SDS011;45812;53.540;9.774;2022-11-12T05:45:37;15.13;;;8.32;;
59950;SDS011;45812;53.540;9.774;2022-11-12T05:48:02;19.70;;;8.80;;
59950;SDS011;45812;53.540;9.774;2022-11-12T05:50:27;16.20;;;8.10;;
59950;SDS011;45812;53.540;9.774;2022-11-12T05:52:52;20.20;;;9.55;;
59950;SDS011;45812;53.540;9.774;2022-11-12T05:55:18;19.65;;;9.40;;
59950;SDS011;45812;53.540;9.774;2022-11-12T05:57:43;21.42;;;9.38;;
59950;SDS011;45812;53.540;9.774;2022-11-12T06:00:08;25.98;;;9.40;;
59950;SDS011;45812;53.540;9.774;2022-11-12T06:02:34;18.13;;;8.48;;
59950;SDS011;45812;53.540;9.774;2022-11-12T06:04:59;15.55;;;7.70;;
59950;SDS011;45812;53.540;9.774;2022-11-12T06:07:24;19.90;;;8.25;;
59950;SDS011;45812;53.540;9.774;2022-11-12T06:09:50;15.48;;;8.05;;
59950;SDS011;45812;53.540;9.774;2022-11-12T06:12:15;15.52;;;7.80;;
59950;SDS011;45812;53.540;9.774;2022-11-12T06:14:40;16.25;;;8.13;;
59950;SDS011;45812;53.540;9.774;2022-11-12T06:17:05;19.55;;;7.47;;
59950;SDS011;45812;53.540;9.774;2022-11-12T06:19:31;17.23;;;8.70;;
59950;SDS011;45812;53.540;9.774;2022-11-12T06:21:56;16.88;;;7.43;;
59950;SDS011;45812;53.540;9.774;2022-11-12T06:24:21;21.08;;;8.27;;
59950;SDS011;45812;53.540;9.774;2022-11-12T06:26:46;22.27;;;7.25;;
59950;SDS011;45812;53.540;9.774;2022-11-12T06:29:12;18.75;;;7.53;;
59950;SDS011;45812;53.540;9.774;2022-11-12T06:31:37;17.98;;;8.43;;
59950;SDS011;45812;53.540;9.774;2022-11-12T06:34:02;22.10;;;9.90;;
59950;SDS011;45812;53.540;9.774;2022-11-12T06:36:27;20.77;;;8.23;;
59950;SDS011;45812;53.540;9.774;2022-11-12T06:38:52;18.02;;;9.00;;
59950;SDS011;45812;53.540;9.774;2022-11-12T06:41:18;23.73;;;10.25;;
59950;SDS011;45812;53.540;9.774;2022-11-12T06:43:43;20.17;;;9.30;;
59950;SDS011;45812;53.540;9.774;2022-11-12T06:46:12;18.33;;;8.80;;
59950;SDS011;45812;53.540;9.774;2022-11-12T06:48:39;18.02;;;9.20;;
59950;SDS011;45812;53.540;9.774;2022-11-12T06:51:06;21.85;;;9.48;;
59950;SDS011;45812;53.540;9.774;2022-11-12T06:53:42;20.92;;;9.93;;
59950;SDS011;45812;53.540;9.774;2022-11-12T06:56:07;23.65;;;10.27;;
59950;SDS011;45812;53.540;9.774;2022-11-12T06:58:33;19.52;;;9.57;;
59950;SDS011;45812;53.540;9.774;2022-11-12T07:01:03;17.25;;;8.65;;
59950;SDS011;45812;53.540;9.774;2022-11-12T07:03:32;19.90;;;8.82;;
59950;SDS011;45812;53.540;9.774;2022-11-12T07:05:57;18.65;;;8.60;;
59950;SDS011;45812;53.540;9.774;2022-11-12T07:08:22;17.00;;;8.90;;
59950;SDS011;45812;53.540;9.774;2022-11-12T07:10:47;17.40;;;8.63;;
59950;SDS011;45812;53.540;9.774;2022-11-12T07:13:13;20.27;;;9.43;;
59950;SDS011;45812;53.540;9.774;2022-11-12T07:15:38;21.75;;;9.10;;
59950;SDS011;45812;53.540;9.774;2022-11-12T07:18:03;14.38;;;7.53;;
59950;SDS011;45812;53.540;9.774;2022-11-12T07:20:29;17.58;;;8.48;;
59950;SDS011;45812;53.540;9.774;2022-11-12T07:22:54;16.63;;;8.70;;
59950;SDS011;45812;53.540;9.774;2022-11-12T07:25:23;16.52;;;8.25;;
59950;SDS011;45812;53.540;9.774;2022-11-12T07:27:49;17.98;;;8.18;;
59950;SDS011;45812;53.540;9.774;2022-11-12T07:30:14;15.70;;;8.15;;
59950;SDS011;45812;53.540;9.774;2022-11-12T07:32:40;17.80;;;8.32;;
59950;SDS011;45812;53.540;9.774;2022-11-12T07:35:05;17.95;;;8.88;;
59950;SDS011;45812;53.540;9.774;2022-11-12T07:37:32;15.20;;;8.32;;
59950;SDS011;45812;53.540;9.774;2022-11-12T07:39:58;17.77;;;8.15;;
59950;SDS011;45812;53.540;9.774;2022-11-12T07:42:24;15.98;;;7.93;;
59950;SDS011;45812;53.540;9.774;2022-11-12T07:44:49;18.40;;;7.82;;
59950;SDS011;45812;53.540;9.774;2022-11-12T07:47:15;15.48;;;7.35;;
59950;SDS011;45812;53.540;9.774;2022-11-12T07:49:40;15.88;;;7.70;;
59950;SDS011;45812;53.540;9.774;2022-11-12T07:52:05;18.40;;;7.85;;
59950;SDS011;45812;53.540;9.774;2022-11-12T07:54:30;12.65;;;7.43;;
59950;SDS011;45812;53.540;9.774;2022-11-12T07:56:55;19.98;;;9.02;;
59950;SDS011;45812;53.540;9.774;2022-11-12T07:59:21;18.20;;;8.70;;
59950;SDS011;45812;53.540;9.774;2022-11-12T08:01:46;17.40;;;8.77;;
59950;SDS011;45812;53.540;9.774;2022-11-12T08:04:11;18.08;;;8.32;;
59950;SDS011;45812;53.540;9.774;2022-11-12T08:06:37;20.95;;;8.93;;
59950;SDS011;45812;53.540;9.774;2022-11-12T08:09:04;15.85;;;7.70;;
59950;SDS011;45812;53.540;9.774;2022-11-12T08:11:31;18.73;;;8.20;;
59950;SDS011;45812;53.540;9.774;2022-11-12T08:13:57;18.48;;;8.35;;
59950;SDS011;45812;53.540;9.774;2022-11-12T08:16:22;15.45;;;7.22;;
59950;SDS011;45812;53.540;9.774;2022-11-12T08:18:48;16.73;;;7.72;;
59950;SDS011;45812;53.540;9.774;2022-11-12T08:21:15;14.02;;;7.55;;
59950;SDS011;45812;53.540;9.774;2022-11-12T08:23:41;15.23;;;7.55;;
59950;SDS011;45812;53.540;9.774;2022-11-12T08:26:07;13.82;;;6.50;;
59950;SDS011;45812;53.540;9.774;2022-11-12T08:28:34;10.10;;;6.15;;
59950;SDS011;45812;53.540;9.774;2022-11-12T08:33:37;14.77;;;6.10;;
59950;SDS011;45812;53.540;9.774;2022-11-12T08:36:03;12.10;;;5.70;;
59950;SDS011;45812;53.540;9.774;2022-11-12T08:38:29;8.77;;;5.85;;
59950;SDS011;45812;53.540;9.774;2022-11-12T08:40:58;12.25;;;5.45;;
59950;SDS011;45812;53.540;9.774;2022-11-12T08:43:24;10.27;;;5.68;;
59950;SDS011;45812;53.540;9.774;2022-11-12T08:45:50;7.40;;;4.80;;
59950;SDS011;45812;53.540;9.774;2022-11-12T08:48:15;12.37;;;5.40;;
59950;SDS011;45812;53.540;9.774;2022-11-12T08:50:40;10.90;;;5.45;;
59950;SDS011;45812;53.540;9.774;2022-11-12T08:53:07;12.02;;;5.90;;
59950;SDS011;45812;53.540;9.774;2022-11-12T08:55:34;9.27;;;5.68;;
59950;SDS011;45812;53.540;9.774;2022-11-12T08:57:59;12.65;;;6.20;;
59950;SDS011;45812;53.540;9.774;2022-11-12T09:00:27;11.10;;;6.00;;
59950;SDS011;45812;53.540;9.774;2022-11-12T09:02:53;12.88;;;6.13;;
59950;SDS011;45812;53.540;9.774;2022-11-12T09:05:18;13.27;;;6.07;;
59950;SDS011;45812;53.540;9.774;2022-11-12T09:07:44;12.18;;;5.97;;
59950;SDS011;45812;53.540;9.774;2022-11-12T09:10:09;8.53;;;5.33;;
59950;SDS011;45812;53.540;9.774;2022-11-12T09:12:34;9.47;;;5.67;;
59950;SDS011;45812;53.540;9.774;2022-11-12T09:14:59;12.63;;;5.87;;
59950;SDS011;45812;53.540;9.774;2022-11-12T09:17:24;14.03;;;6.57;;
59950;SDS011;45812;53.540;9.774;2022-11-12T09:19:50;9.40;;;5.80;;
59950;SDS011;45812;53.540;9.774;2022-11-12T09:22:15;14.00;;;5.95;;
59950;SDS011;45812;53.540;9.774;2022-11-12T09:24:40;11.93;;;6.27;;
59950;SDS011;45812;53.540;9.774;2022-11-12T09:27:06;12.17;;;6.10;;
59950;SDS011;45812;53.540;9.774;2022-11-12T09:29:31;8.57;;;5.60;;
59950;SDS011;45812;53.540;9.774;2022-11-12T09:31:56;14.20;;;6.55;;
59950;SDS011;45812;53.540;9.774;2022-11-12T09:34:23;8.68;;;5.57;;
59950;SDS011;45812;53.540;9.774;2022-11-12T09:36:48;13.05;;;6.32;;
59950;SDS011;45812;53.540;9.774;2022-11-12T09:39:14;11.47;;;5.80;;
59950;SDS011;45812;53.540;9.774;2022-11-12T09:41:39;8.35;;;5.47;;
59950;SDS011;45812;53.540;9.774;2022-11-12T09:44:10;12.70;;;6.35;;
59950;SDS011;45812;53.540;9.774;2022-11-12T09:51:38;8.55;;;5.15;;
59950;SDS011;45812;53.540;9.774;2022-11-12T09:54:11;15.65;;;5.97;;
59950;SDS011;45812;53.540;9.774;2022-11-12T09:56:48;9.98;;;5.63;;
59950;SDS011;45812;53.540;9.774;2022-11-12T09:59:14;12.60;;;5.57;;
59950;SDS011;45812;53.540;9.774;2022-11-12T10:07:41;12.38;;;6.07;;
59950;SDS011;45812;53.540;9.774;2022-11-12T10:16:47;12.02;;;6.00;;
59950;SDS011;45812;53.540;9.774;2022-11-12T10:19:45;12.05;;;5.63;;
59950;SDS011;45812;53.540;9.774;2022-11-12T10:25:18;11.82;;;5.85;;
59950;SDS011;45812;53.540;9.774;2022-11-12T10:27:44;8.23;;;5.65;;
59950;SDS011;45812;53.540;9.774;2022-11-12T10:30:17;13.13;;;6.15;;
59950;SDS011;45812;53.540;9.774;2022-11-12T10:32:44;10.57;;;5.72;;
59950;SDS011;45812;53.540;9.774;2022-11-12T10:35:12;11.60;;;5.75;;
59950;SDS011;45812;53.540;9.774;2022-11-12T10:37:57;13.18;;;5.88;;
59950;SDS011;45812;53.540;9.774;2022-11-12T10:40:27;13.05;;;6.55;;
59950;SDS011;45812;53.540;9.774;2022-11-12T10:43:03;10.10;;;5.70;;
59950;SDS011;45812;53.540;9.774;2022-11-12T10:45:45;9.02;;;5.25;;
59950;SDS011;45812;53.540;9.774;2022-11-12T10:48:28;9.48;;;5.75;;
59950;SDS011;45812;53.540;9.774;2022-11-12T10:50:58;12.05;;;5.70;;
59950;SDS011;45812;53.540;9.774;2022-11-12T10:55:59;12.02;;;5.43;;
59950;SDS011;45812;53.540;9.774;2022-11-12T10:58:27;11.35;;;5.90;;
59950;SDS011;45812;53.540;9.774;2022-11-12T11:03:24;10.00;;;5.93;;
59950;SDS011;45812;53.540;9.774;2022-11-12T11:06:06;11.77;;;6.13;;
59950;SDS011;45812;53.540;9.774;2022-11-12T11:08:49;11.35;;;6.13;;
59950;SDS011;45812;53.540;9.774;2022-11-12T11:11:23;9.18;;;5.93;;
59950;SDS011;45812;53.540;9.774;2022-11-12T11:13:51;12.00;;;5.85;;
59950;SDS011;45812;53.540;9.774;2022-11-12T11:16:20;11.15;;;5.90;;
59950;SDS011;45812;53.540;9.774;2022-11-12T11:18:54;12.40;;;6.40;;
59950;SDS011;45812;53.540;9.774;2022-11-12T11:24:20;12.98;;;5.82;;
59950;SDS011;45812;53.540;9.774;2022-11-12T11:26:55;10.63;;;5.72;;
59950;SDS011;45812;53.540;9.774;2022-11-12T11:35:06;12.07;;;6.28;;
59950;SDS011;45812;53.540;9.774;2022-11-12T11:37:53;14.65;;;6.35;;
59950;SDS011;45812;53.540;9.774;2022-11-12T11:40:37;14.98;;;6.72;;
59950;SDS011;45812;53.540;9.774;2022-11-12T11:43:20;9.73;;;5.82;;
59950;SDS011;45812;53.540;9.774;2022-11-12T11:51:37;10.55;;;5.70;;
59950;SDS011;45812;53.540;9.774;2022-11-12T11:54:12;11.65;;;5.53;;
59950;SDS011;45812;53.540;9.774;2022-11-12T11:59:35;10.63;;;6.00;;
59950;SDS011;45812;53.540;9.774;2022-11-12T12:02:21;10.80;;;5.85;;
59950;SDS011;45812;53.540;9.774;2022-11-12T12:05:07;10.88;;;5.80;;
59950;SDS011;45812;53.540;9.774;2022-11-12T12:08:02;11.52;;;5.35;;
59950;SDS011;45812;53.540;9.774;2022-11-12T12:14:06;10.75;;;5.60;;
59950;SDS011;45812;53.540;9.774;2022-11-12T12:17:01;12.45;;;5.75;;
59950;SDS011;45812;53.540;9.774;2022-11-12T12:19:40;13.35;;;6.05;;
59950;SDS011;45812;53.540;9.774;2022-11-12T12:22:18;13.65;;;6.13;;
59950;SDS011;45812;53.540;9.774;2022-11-12T12:24:51;9.50;;;6.10;;
59950;SDS011;45812;53.540;9.774;2022-11-12T12:27:31;11.32;;;6.10;;
59950;SDS011;45812;53.540;9.774;2022-11-12T12:30:04;13.65;;;5.93;;
59950;SDS011;45812;53.540;9.774;2022-11-12T12:33:00;11.52;;;5.90;;
59950;SDS011;45812;53.540;9.774;2022-11-12T12:35:51;15.70;;;6.43;;
59950;SDS011;45812;53.540;9.774;2022-11-12T12:41:22;13.57;;;5.65;;
59950;SDS011;45812;53.540;9.774;2022-11-12T12:44:07;10.23;;;5.57;;
59950;SDS011;45812;53.540;9.774;2022-11-12T12:46:44;12.73;;;5.95;;
59950;SDS011;45812;53.540;9.774;2022-11-12T12:49:19;10.93;;;5.32;;
59950;SDS011;45812;53.540;9.774;2022-11-12T12:51:52;12.30;;;5.82;;
59950;SDS011;45812;53.540;9.774;2022-11-12T12:54:43;12.48;;;5.13;;
59950;SDS011;45812;53.540;9.774;2022-11-12T13:02:56;17.83;;;5.65;;
59950;SDS011;45812;53.540;9.774;2022-11-12T13:05:23;13.93;;;5.78;;
59950;SDS011;45812;53.540;9.774;2022-11-12T13:07:51;14.35;;;5.72;;
59950;SDS011;45812;53.540;9.774;2022-11-12T13:10:44;14.60;;;5.75;;
59950;SDS011;45812;53.540;9.774;2022-11-12T13:15:49;12.95;;;5.30;;
59950;SDS011;45812;53.540;9.774;2022-11-12T13:21:15;10.23;;;4.82;;
59950;SDS011;45812;53.540;9.774;2022-11-12T13:23:55;12.93;;;5.82;;
59950;SDS011;45812;53.540;9.774;2022-11-12T13:26:47;10.48;;;5.18;;
59950;SDS011;45812;53.540;9.774;2022-11-12T13:35:08;9.10;;;4.80;;
59950;SDS011;45812;53.540;9.774;2022-11-12T13:40:19;12.98;;;6.03;;
59950;SDS011;45812;53.540;9.774;2022-11-12T13:42:50;8.30;;;4.85;;
59950;SDS011;45812;53.540;9.774;2022-11-12T13:45:21;9.95;;;5.35;;
59950;SDS011;45812;53.540;9.774;2022-11-12T13:47:48;10.38;;;4.93;;
59950;SDS011;45812;53.540;9.774;2022-11-12T13:50:16;12.18;;;6.13;;
59950;SDS011;45812;53.540;9.774;2022-11-12T13:52:45;15.43;;;5.00;;
59950;SDS011;45812;53.540;9.774;2022-11-12T13:55:12;8.40;;;4.90;;
59950;SDS011;45812;53.540;9.774;2022-11-12T13:57:39;12.38;;;5.68;;
59950;SDS011;45812;53.540;9.774;2022-11-12T14:00:09;10.00;;;5.05;;
59950;SDS011;45812;53.540;9.774;2022-11-12T14:02:40;13.13;;;5.32;;
59950;SDS011;45812;53.540;9.774;2022-11-12T14:05:18;9.98;;;5.03;;
59950;SDS011;45812;53.540;9.774;2022-11-12T14:12:59;9.18;;;4.88;;
59950;SDS011;45812;53.540;9.774;2022-11-12T14:21:27;11.10;;;5.57;;
59950;SDS011;45812;53.540;9.774;2022-11-12T14:23:53;13.07;;;5.68;;
59950;SDS011;45812;53.540;9.774;2022-11-12T14:26:32;10.97;;;5.33;;
59950;SDS011;45812;53.540;9.774;2022-11-12T14:28:59;10.65;;;5.20;;
59950;SDS011;45812;53.540;9.774;2022-11-12T14:31:25;13.60;;;6.05;;
59950;SDS011;45812;53.540;9.774;2022-11-12T14:33:50;10.35;;;5.47;;
59950;SDS011;45812;53.540;9.774;2022-11-12T14:36:16;14.97;;;5.90;;
59950;SDS011;45812;53.540;9.774;2022-11-12T14:41:23;11.45;;;5.53;;
59950;SDS011;45812;53.540;9.774;2022-11-12T14:43:53;12.50;;;6.10;;
59950;SDS011;45812;53.540;9.774;2022-11-12T14:48:50;11.90;;;5.28;;
59950;SDS011;45812;53.540;9.774;2022-11-12T14:51:19;10.52;;;5.85;;
59950;SDS011;45812;53.540;9.774;2022-11-12T14:53:56;10.30;;;5.75;;
59950;SDS011;45812;53.540;9.774;2022-11-12T14:59:20;15.55;;;5.80;;
59950;SDS011;45812;53.540;9.774;2022-11-12T15:02:06;11.57;;;5.10;;
59950;SDS011;45812;53.540;9.774;2022-11-12T15:04:37;12.15;;;5.80;;
59950;SDS011;45812;53.540;9.774;2022-11-12T15:07:21;11.95;;;5.50;;
59950;SDS011;45812;53.540;9.774;2022-11-12T15:09:48;9.65;;;5.38;;
59950;SDS011;45812;53.540;9.774;2022-11-12T15:12:18;20.37;;;7.03;;
59950;SDS011;45812;53.540;9.774;2022-11-12T15:14:46;11.38;;;5.38;;
59950;SDS011;45812;53.540;9.774;2022-11-12T15:17:29;15.23;;;5.75;;
59950;SDS011;45812;53.540;9.774;2022-11-12T15:20:01;10.80;;;5.35;;
59950;SDS011;45812;53.540;9.774;2022-11-12T15:22:27;7.90;;;4.85;;
59950;SDS011;45812;53.540;9.774;2022-11-12T15:24:53;13.90;;;5.53;;
59950;SDS011;45812;53.540;9.774;2022-11-12T15:27:34;15.68;;;6.25;;
59950;SDS011;45812;53.540;9.774;2022-11-12T15:32:47;22.27;;;6.55;;
59950;SDS011;45812;53.540;9.774;2022-11-12T15:37:50;14.82;;;5.70;;
59950;SDS011;45812;53.540;9.774;2022-11-12T15:40:17;13.93;;;6.32;;
59950;SDS011;45812;53.540;9.774;2022-11-12T15:42:44;12.77;;;5.70;;
59950;SDS011;45812;53.540;9.774;2022-11-12T15:45:17;15.30;;;6.25;;
59950;SDS011;45812;53.540;9.774;2022-11-12T15:47:44;11.70;;;5.90;;
59950;SDS011;45812;53.540;9.774;2022-11-12T15:50:14;11.35;;;5.53;;
59950;SDS011;45812;53.540;9.774;2022-11-12T15:52:41;10.65;;;5.43;;
59950;SDS011;45812;53.540;9.774;2022-11-12T15:55:07;12.35;;;5.93;;
59950;SDS011;45812;53.540;9.774;2022-11-12T15:57:33;11.25;;;5.68;;
59950;SDS011;45812;53.540;9.774;2022-11-12T16:00:06;13.10;;;5.88;;
59950;SDS011;45812;53.540;9.774;2022-11-12T16:02:38;13.82;;;6.00;;
59950;SDS011;45812;53.540;9.774;2022-11-12T16:05:03;14.82;;;5.90;;
59950;SDS011;45812;53.540;9.774;2022-11-12T16:07:29;17.15;;;5.70;;
59950;SDS011;45812;53.540;9.774;2022-11-12T16:09:55;12.25;;;5.85;;
59950;SDS011;45812;53.540;9.774;2022-11-12T16:12:20;11.10;;;5.35;;
59950;SDS011;45812;53.540;9.774;2022-11-12T16:14:45;11.25;;;5.25;;
59950;SDS011;45812;53.540;9.774;2022-11-12T16:17:12;11.05;;;5.63;;
59950;SDS011;45812;53.540;9.774;2022-11-12T16:19:39;11.88;;;6.25;;
59950;SDS011;45812;53.540;9.774;2022-11-12T16:22:05;13.13;;;6.70;;
59950;SDS011;45812;53.540;9.774;2022-11-12T16:24:36;9.98;;;5.53;;
59950;SDS011;45812;53.540;9.774;2022-11-12T16:27:05;12.90;;;5.53;;
59950;SDS011;45812;53.540;9.774;2022-11-12T16:29:31;15.30;;;6.20;;
59950;SDS011;45812;53.540;9.774;2022-11-12T16:31:57;12.70;;;6.22;;
59950;SDS011;45812;53.540;9.774;2022-11-12T16:34:22;14.95;;;6.00;;
59950;SDS011;45812;53.540;9.774;2022-11-12T16:36:48;11.40;;;5.97;;